sensor_id;sensor_type;location;lat;lon;timestamp;P1;durP1;ratioP1;P2;durP2;ratioP2
57593;SDS011;43423;46.510;6.686;2023-01-05T00:01:09;15.35;;;8.30;;
57593;SDS011;43423;46.510;6.686;2023-01-05T00:03:36;14.02;;;8.15;;
57593;SDS011;43423;46.510;6.686;2023-01-05T00:06:03;19.05;;;8.43;;
57593;SDS011;43423;46.510;6.686;2023-01-05T00:08:31;16.42;;;7.53;;
57593;SDS011;43423;46.510;6.686;2023-01-05T00:11:02;14.93;;;7.57;;
57593;SDS011;43423;46.510;6.686;2023-01-05T00:13:47;19.13;;;6.97;;
57593;SDS011;43423;46.510;6.686;2023-01-05T00:16:31;16.02;;;6.90;;
57593;SDS011;43423;46.510;6.686;2023-01-05T00:19:15;12.35;;;6.55;;
57593;SDS011;43423;46.510;6.686;2023-01-05T00:21:59;13.68;;;6.95;;
57593;SDS011;43423;46.510;6.686;2023-01-05T00:24:43;10.68;;;5.88;;
57593;SDS011;43423;46.510;6.686;2023-01-05T00:27:09;12.05;;;6.47;;
57593;SDS011;43423;46.510;6.686;2023-01-05T00:29:34;12.32;;;6.18;;
57593;SDS011;43423;46.510;6.686;2023-01-05T00:32:00;11.48;;;6.30;;
57593;SDS011;43423;46.510;6.686;2023-01-05T00:34:26;10.85;;;5.63;;
57593;SDS011;43423;46.510;6.686;2023-01-05T00:36:52;10.95;;;5.25;;
57593;SDS011;43423;46.510;6.686;2023-01-05T00:39:17;9.35;;;5.15;;
57593;SDS011;43423;46.510;6.686;2023-01-05T00:41:43;9.55;;;4.85;;
57593;SDS011;43423;46.510;6.686;2023-01-05T00:44:08;13.43;;;5.03;;
57593;SDS011;43423;46.510;6.686;2023-01-05T00:46:34;9.15;;;4.82;;
57593;SDS011;43423;46.510;6.686;2023-01-05T00:48:59;6.85;;;3.95;;
57593;SDS011;43423;46.510;6.686;2023-01-05T00:51:25;8.93;;;4.78;;
57593;SDS011;43423;46.510;6.686;2023-01-05T00:53:50;8.77;;;4.03;;
57593;SDS011;43423;46.510;6.686;2023-01-05T00:56:16;8.63;;;4.50;;
57593;SDS011;43423;46.510;6.686;2023-01-05T00:58:41;7.80;;;4.13;;
57593;SDS011;43423;46.510;6.686;2023-01-05T01:01:08;9.27;;;4.28;;
57593;SDS011;43423;46.510;6.686;2023-01-05T01:03:35;10.48;;;4.88;;
57593;SDS011;43423;46.510;6.686;2023-01-05T01:06:00;7.40;;;4.55;;
57593;SDS011;43423;46.510;6.686;2023-01-05T01:08:26;12.18;;;5.15;;
57593;SDS011;43423;46.510;6.686;2023-01-05T01:10:52;9.50;;;4.40;;
57593;SDS011;43423;46.510;6.686;2023-01-05T01:13:17;8.93;;;4.60;;
57593;SDS011;43423;46.510;6.686;2023-01-05T01:15:43;8.48;;;4.25;;
57593;SDS011;43423;46.510;6.686;2023-01-05T01:18:08;7.28;;;4.13;;
57593;SDS011;43423;46.510;6.686;2023-01-05T01:20:35;8.60;;;4.50;;
57593;SDS011;43423;46.510;6.686;2023-01-05T01:23:01;9.45;;;4.10;;
57593;SDS011;43423;46.510;6.686;2023-01-05T01:25:28;11.40;;;4.20;;
57593;SDS011;43423;46.510;6.686;2023-01-05T01:27:54;6.65;;;3.92;;
57593;SDS011;43423;46.510;6.686;2023-01-05T01:30:20;10.07;;;4.10;;
57593;SDS011;43423;46.510;6.686;2023-01-05T01:32:45;15.50;;;4.72;;
57593;SDS011;43423;46.510;6.686;2023-01-05T01:35:11;8.55;;;3.75;;
57593;SDS011;43423;46.510;6.686;2023-01-05T01:37:38;7.60;;;3.72;;
57593;SDS011;43423;46.510;6.686;2023-01-05T01:40:04;11.25;;;5.78;;
57593;SDS011;43423;46.510;6.686;2023-01-05T01:42:30;13.15;;;6.65;;
57593;SDS011;43423;46.510;6.686;2023-01-05T01:44:57;12.45;;;6.53;;
57593;SDS011;43423;46.510;6.686;2023-01-05T01:47:31;19.33;;;8.65;;
57593;SDS011;43423;46.510;6.686;2023-01-05T01:50:13;14.57;;;7.72;;
57593;SDS011;43423;46.510;6.686;2023-01-05T01:55:11;16.45;;;7.57;;
57593;SDS011;43423;46.510;6.686;2023-01-05T01:57:37;17.83;;;7.85;;
57593;SDS011;43423;46.510;6.686;2023-01-05T02:00:05;13.40;;;8.05;;
57593;SDS011;43423;46.510;6.686;2023-01-05T02:02:32;15.07;;;8.25;;
57593;SDS011;43423;46.510;6.686;2023-01-05T02:05:00;19.45;;;8.45;;
57593;SDS011;43423;46.510;6.686;2023-01-05T02:07:31;13.75;;;8.18;;
57593;SDS011;43423;46.510;6.686;2023-01-05T02:09:59;16.15;;;8.18;;
57593;SDS011;43423;46.510;6.686;2023-01-05T02:15:27;12.90;;;7.40;;
57593;SDS011;43423;46.510;6.686;2023-01-05T02:18:11;15.52;;;8.15;;
57593;SDS011;43423;46.510;6.686;2023-01-05T02:23:30;15.68;;;8.18;;
57593;SDS011;43423;46.510;6.686;2023-01-05T02:31:21;14.93;;;8.38;;
57593;SDS011;43423;46.510;6.686;2023-01-05T02:34:08;11.38;;;7.22;;
57593;SDS011;43423;46.510;6.686;2023-01-05T02:36:54;11.90;;;6.82;;
57593;SDS011;43423;46.510;6.686;2023-01-05T02:39:28;14.75;;;7.28;;
57593;SDS011;43423;46.510;6.686;2023-01-05T02:42:00;16.65;;;7.93;;
57593;SDS011;43423;46.510;6.686;2023-01-05T02:44:30;15.55;;;8.02;;
57593;SDS011;43423;46.510;6.686;2023-01-05T02:47:02;14.18;;;7.25;;
57593;SDS011;43423;46.510;6.686;2023-01-05T02:49:34;17.30;;;7.57;;
57593;SDS011;43423;46.510;6.686;2023-01-05T02:52:04;13.88;;;7.22;;
57593;SDS011;43423;46.510;6.686;2023-01-05T02:54:34;14.98;;;8.02;;
57593;SDS011;43423;46.510;6.686;2023-01-05T02:57:13;11.15;;;6.13;;
57593;SDS011;43423;46.510;6.686;2023-01-05T02:59:48;12.98;;;6.25;;
57593;SDS011;43423;46.510;6.686;2023-01-05T03:02:22;12.98;;;5.80;;
57593;SDS011;43423;46.510;6.686;2023-01-05T03:04:54;9.77;;;5.82;;
57593;SDS011;43423;46.510;6.686;2023-01-05T03:07:29;10.52;;;5.97;;
57593;SDS011;43423;46.510;6.686;2023-01-05T03:09:59;10.60;;;5.70;;
57593;SDS011;43423;46.510;6.686;2023-01-05T03:12:48;12.90;;;6.68;;
57593;SDS011;43423;46.510;6.686;2023-01-05T03:15:36;17.20;;;6.55;;
57593;SDS011;43423;46.510;6.686;2023-01-05T03:18:05;12.23;;;5.78;;
57593;SDS011;43423;46.510;6.686;2023-01-05T03:20:34;16.65;;;6.82;;
57593;SDS011;43423;46.510;6.686;2023-01-05T03:23:04;14.15;;;6.53;;
57593;SDS011;43423;46.510;6.686;2023-01-05T03:25:50;12.35;;;6.70;;
57593;SDS011;43423;46.510;6.686;2023-01-05T03:28:40;12.40;;;6.43;;
57593;SDS011;43423;46.510;6.686;2023-01-05T03:34:18;12.52;;;6.10;;
57593;SDS011;43423;46.510;6.686;2023-01-05T03:37:22;15.23;;;6.85;;
57593;SDS011;43423;46.510;6.686;2023-01-05T03:39:52;12.18;;;6.32;;
57593;SDS011;43423;46.510;6.686;2023-01-05T03:42:17;15.75;;;7.93;;
57593;SDS011;43423;46.510;6.686;2023-01-05T03:44:44;19.00;;;8.27;;
57593;SDS011;43423;46.510;6.686;2023-01-05T03:47:11;17.77;;;7.82;;
57593;SDS011;43423;46.510;6.686;2023-01-05T03:49:37;16.05;;;8.38;;
57593;SDS011;43423;46.510;6.686;2023-01-05T03:52:03;15.50;;;8.18;;
57593;SDS011;43423;46.510;6.686;2023-01-05T03:54:29;17.45;;;8.38;;
57593;SDS011;43423;46.510;6.686;2023-01-05T03:56:54;18.35;;;8.75;;
57593;SDS011;43423;46.510;6.686;2023-01-05T03:59:20;17.95;;;8.90;;
57593;SDS011;43423;46.510;6.686;2023-01-05T04:01:46;20.90;;;10.27;;
57593;SDS011;43423;46.510;6.686;2023-01-05T04:04:11;21.15;;;8.90;;
57593;SDS011;43423;46.510;6.686;2023-01-05T04:06:37;18.20;;;7.85;;
57593;SDS011;43423;46.510;6.686;2023-01-05T04:09:03;15.98;;;9.35;;
57593;SDS011;43423;46.510;6.686;2023-01-05T04:11:28;17.85;;;8.95;;
57593;SDS011;43423;46.510;6.686;2023-01-05T04:13:54;15.85;;;8.10;;
57593;SDS011;43423;46.510;6.686;2023-01-05T04:16:20;14.95;;;7.93;;
57593;SDS011;43423;46.510;6.686;2023-01-05T04:18:46;12.88;;;7.20;;
57593;SDS011;43423;46.510;6.686;2023-01-05T04:21:11;12.85;;;6.88;;
57593;SDS011;43423;46.510;6.686;2023-01-05T04:23:37;14.80;;;7.43;;
57593;SDS011;43423;46.510;6.686;2023-01-05T04:26:02;12.95;;;6.38;;
57593;SDS011;43423;46.510;6.686;2023-01-05T04:28:28;14.88;;;7.30;;
57593;SDS011;43423;46.510;6.686;2023-01-05T04:30:54;13.25;;;7.28;;
57593;SDS011;43423;46.510;6.686;2023-01-05T04:33:21;20.20;;;10.13;;
57593;SDS011;43423;46.510;6.686;2023-01-05T04:35:47;18.40;;;8.73;;
57593;SDS011;43423;46.510;6.686;2023-01-05T04:38:14;15.25;;;7.95;;
57593;SDS011;43423;46.510;6.686;2023-01-05T04:40:39;14.38;;;7.50;;
57593;SDS011;43423;46.510;6.686;2023-01-05T04:43:05;14.38;;;7.10;;
57593;SDS011;43423;46.510;6.686;2023-01-05T04:45:32;12.30;;;6.22;;
57593;SDS011;43423;46.510;6.686;2023-01-05T04:47:58;13.13;;;6.10;;
57593;SDS011;43423;46.510;6.686;2023-01-05T04:50:24;13.02;;;6.28;;
57593;SDS011;43423;46.510;6.686;2023-01-05T04:52:50;12.65;;;7.45;;
57593;SDS011;43423;46.510;6.686;2023-01-05T04:55:16;15.27;;;7.10;;
57593;SDS011;43423;46.510;6.686;2023-01-05T04:57:41;15.80;;;7.80;;
57593;SDS011;43423;46.510;6.686;2023-01-05T05:00:07;18.83;;;7.97;;
57593;SDS011;43423;46.510;6.686;2023-01-05T05:02:33;14.18;;;7.25;;
57593;SDS011;43423;46.510;6.686;2023-01-05T05:04:59;16.50;;;8.00;;
57593;SDS011;43423;46.510;6.686;2023-01-05T05:07:25;14.93;;;7.78;;
57593;SDS011;43423;46.510;6.686;2023-01-05T05:09:51;15.35;;;7.50;;
57593;SDS011;43423;46.510;6.686;2023-01-05T05:12:16;14.23;;;8.32;;
57593;SDS011;43423;46.510;6.686;2023-01-05T05:14:47;15.27;;;7.43;;
57593;SDS011;43423;46.510;6.686;2023-01-05T05:17:14;23.75;;;8.40;;
57593;SDS011;43423;46.510;6.686;2023-01-05T05:19:40;15.18;;;8.30;;
57593;SDS011;43423;46.510;6.686;2023-01-05T05:22:06;13.38;;;7.75;;
57593;SDS011;43423;46.510;6.686;2023-01-05T05:24:31;14.63;;;7.70;;
57593;SDS011;43423;46.510;6.686;2023-01-05T05:26:57;15.25;;;8.18;;
57593;SDS011;43423;46.510;6.686;2023-01-05T05:29:23;17.20;;;8.93;;
57593;SDS011;43423;46.510;6.686;2023-01-05T05:31:49;13.82;;;8.25;;
57593;SDS011;43423;46.510;6.686;2023-01-05T05:34:15;15.35;;;8.30;;
57593;SDS011;43423;46.510;6.686;2023-01-05T05:36:41;15.82;;;8.10;;
57593;SDS011;43423;46.510;6.686;2023-01-05T05:39:07;18.02;;;8.10;;
57593;SDS011;43423;46.510;6.686;2023-01-05T05:41:35;14.98;;;7.93;;
57593;SDS011;43423;46.510;6.686;2023-01-05T05:44:00;14.10;;;8.18;;
57593;SDS011;43423;46.510;6.686;2023-01-05T05:46:27;14.40;;;7.15;;
57593;SDS011;43423;46.510;6.686;2023-01-05T05:48:55;17.95;;;7.95;;
57593;SDS011;43423;46.510;6.686;2023-01-05T05:51:22;13.40;;;8.20;;
57593;SDS011;43423;46.510;6.686;2023-01-05T05:53:48;10.70;;;7.10;;
57593;SDS011;43423;46.510;6.686;2023-01-05T05:56:15;13.90;;;7.63;;
57593;SDS011;43423;46.510;6.686;2023-01-05T05:58:40;17.23;;;7.40;;
57593;SDS011;43423;46.510;6.686;2023-01-05T06:01:06;13.55;;;7.63;;
57593;SDS011;43423;46.510;6.686;2023-01-05T06:03:32;13.75;;;7.20;;
57593;SDS011;43423;46.510;6.686;2023-01-05T06:05:58;51.03;;;22.40;;
57593;SDS011;43423;46.510;6.686;2023-01-05T06:08:23;35.78;;;17.17;;
57593;SDS011;43423;46.510;6.686;2023-01-05T06:10:51;21.95;;;10.85;;
57593;SDS011;43423;46.510;6.686;2023-01-05T06:13:17;16.23;;;7.72;;
57593;SDS011;43423;46.510;6.686;2023-01-05T06:15:42;13.75;;;7.75;;
57593;SDS011;43423;46.510;6.686;2023-01-05T06:18:08;12.48;;;7.57;;
57593;SDS011;43423;46.510;6.686;2023-01-05T06:20:34;14.20;;;7.75;;
57593;SDS011;43423;46.510;6.686;2023-01-05T06:23:00;13.18;;;7.40;;
57593;SDS011;43423;46.510;6.686;2023-01-05T06:25:26;15.82;;;8.75;;
57593;SDS011;43423;46.510;6.686;2023-01-05T06:27:51;16.58;;;8.98;;
57593;SDS011;43423;46.510;6.686;2023-01-05T06:30:17;14.70;;;7.97;;
57593;SDS011;43423;46.510;6.686;2023-01-05T06:32:43;14.15;;;7.53;;
57593;SDS011;43423;46.510;6.686;2023-01-05T06:35:08;13.85;;;7.63;;
57593;SDS011;43423;46.510;6.686;2023-01-05T06:37:34;16.58;;;8.10;;
57593;SDS011;43423;46.510;6.686;2023-01-05T06:40:00;17.27;;;8.20;;
57593;SDS011;43423;46.510;6.686;2023-01-05T06:42:26;15.75;;;8.20;;
57593;SDS011;43423;46.510;6.686;2023-01-05T06:44:52;13.40;;;7.82;;
57593;SDS011;43423;46.510;6.686;2023-01-05T06:47:18;13.13;;;7.50;;
57593;SDS011;43423;46.510;6.686;2023-01-05T06:49:44;12.85;;;7.68;;
57593;SDS011;43423;46.510;6.686;2023-01-05T06:52:09;14.55;;;7.05;;
57593;SDS011;43423;46.510;6.686;2023-01-05T06:54:35;13.10;;;7.78;;
57593;SDS011;43423;46.510;6.686;2023-01-05T06:57:01;13.23;;;7.32;;
57593;SDS011;43423;46.510;6.686;2023-01-05T06:59:27;13.75;;;7.70;;
57593;SDS011;43423;46.510;6.686;2023-01-05T07:01:52;15.75;;;8.43;;
57593;SDS011;43423;46.510;6.686;2023-01-05T07:04:18;13.95;;;8.13;;
57593;SDS011;43423;46.510;6.686;2023-01-05T07:06:44;16.08;;;8.68;;
57593;SDS011;43423;46.510;6.686;2023-01-05T07:09:10;11.73;;;7.28;;
57593;SDS011;43423;46.510;6.686;2023-01-05T07:11:35;16.02;;;8.60;;
57593;SDS011;43423;46.510;6.686;2023-01-05T07:14:01;12.80;;;6.72;;
57593;SDS011;43423;46.510;6.686;2023-01-05T07:16:27;12.30;;;6.85;;
57593;SDS011;43423;46.510;6.686;2023-01-05T07:18:53;15.20;;;7.05;;
57593;SDS011;43423;46.510;6.686;2023-01-05T07:21:18;13.68;;;7.80;;
57593;SDS011;43423;46.510;6.686;2023-01-05T07:23:44;14.32;;;8.10;;
57593;SDS011;43423;46.510;6.686;2023-01-05T07:26:09;13.05;;;8.40;;
57593;SDS011;43423;46.510;6.686;2023-01-05T07:28:35;14.93;;;7.60;;
57593;SDS011;43423;46.510;6.686;2023-01-05T07:31:02;11.45;;;7.60;;
57593;SDS011;43423;46.510;6.686;2023-01-05T07:33:29;14.60;;;7.85;;
57593;SDS011;43423;46.510;6.686;2023-01-05T07:35:59;15.30;;;7.60;;
57593;SDS011;43423;46.510;6.686;2023-01-05T07:38:26;14.07;;;8.05;;
57593;SDS011;43423;46.510;6.686;2023-01-05T07:44:07;14.73;;;7.80;;
57593;SDS011;43423;46.510;6.686;2023-01-05T07:46:40;12.14;;;7.78;;
57593;SDS011;43423;46.510;6.686;2023-01-05T07:49:06;13.68;;;8.07;;
57593;SDS011;43423;46.510;6.686;2023-01-05T07:51:31;13.85;;;7.97;;
57593;SDS011;43423;46.510;6.686;2023-01-05T07:53:57;18.48;;;8.30;;
57593;SDS011;43423;46.510;6.686;2023-01-05T07:56:23;12.15;;;7.47;;
57593;SDS011;43423;46.510;6.686;2023-01-05T07:58:48;15.90;;;8.00;;
57593;SDS011;43423;46.510;6.686;2023-01-05T08:01:14;14.27;;;7.60;;
57593;SDS011;43423;46.510;6.686;2023-01-05T08:03:42;14.85;;;7.93;;
57593;SDS011;43423;46.510;6.686;2023-01-05T08:06:15;13.68;;;7.47;;
57593;SDS011;43423;46.510;6.686;2023-01-05T08:08:42;15.20;;;8.13;;
57593;SDS011;43423;46.510;6.686;2023-01-05T08:11:09;15.88;;;8.55;;
57593;SDS011;43423;46.510;6.686;2023-01-05T08:13:35;21.90;;;9.13;;
57593;SDS011;43423;46.510;6.686;2023-01-05T08:16:20;15.82;;;7.63;;
57593;SDS011;43423;46.510;6.686;2023-01-05T08:18:46;13.35;;;6.50;;
57593;SDS011;43423;46.510;6.686;2023-01-05T08:21:12;15.18;;;7.45;;
57593;SDS011;43423;46.510;6.686;2023-01-05T08:23:38;14.48;;;7.85;;
57593;SDS011;43423;46.510;6.686;2023-01-05T08:26:04;11.90;;;6.10;;
57593;SDS011;43423;46.510;6.686;2023-01-05T08:28:33;13.55;;;6.55;;
57593;SDS011;43423;46.510;6.686;2023-01-05T08:31:00;12.48;;;5.78;;
57593;SDS011;43423;46.510;6.686;2023-01-05T08:33:29;12.80;;;5.57;;
57593;SDS011;43423;46.510;6.686;2023-01-05T08:35:55;10.65;;;5.75;;
57593;SDS011;43423;46.510;6.686;2023-01-05T08:38:21;9.40;;;5.75;;
57593;SDS011;43423;46.510;6.686;2023-01-05T08:40:47;11.68;;;4.63;;
57593;SDS011;43423;46.510;6.686;2023-01-05T08:43:12;12.13;;;5.43;;
57593;SDS011;43423;46.510;6.686;2023-01-05T08:45:38;8.57;;;4.70;;
57593;SDS011;43423;46.510;6.686;2023-01-05T08:48:04;8.77;;;5.70;;
57593;SDS011;43423;46.510;6.686;2023-01-05T08:50:30;10.25;;;5.13;;
57593;SDS011;43423;46.510;6.686;2023-01-05T08:52:56;8.88;;;4.93;;
57593;SDS011;43423;46.510;6.686;2023-01-05T08:55:22;11.85;;;4.72;;
57593;SDS011;43423;46.510;6.686;2023-01-05T08:57:47;9.75;;;4.47;;
57593;SDS011;43423;46.510;6.686;2023-01-05T09:00:14;10.23;;;4.82;;
57593;SDS011;43423;46.510;6.686;2023-01-05T09:02:41;9.95;;;5.45;;
57593;SDS011;43423;46.510;6.686;2023-01-05T09:05:08;9.18;;;4.55;;
57593;SDS011;43423;46.510;6.686;2023-01-05T09:07:34;10.68;;;5.38;;
57593;SDS011;43423;46.510;6.686;2023-01-05T09:10:00;12.43;;;5.10;;
57593;SDS011;43423;46.510;6.686;2023-01-05T09:12:25;8.70;;;4.30;;
57593;SDS011;43423;46.510;6.686;2023-01-05T09:14:51;10.15;;;5.00;;
57593;SDS011;43423;46.510;6.686;2023-01-05T09:17:18;7.10;;;4.28;;
57593;SDS011;43423;46.510;6.686;2023-01-05T09:19:44;10.85;;;5.53;;
57593;SDS011;43423;46.510;6.686;2023-01-05T09:22:10;10.05;;;5.03;;
57593;SDS011;43423;46.510;6.686;2023-01-05T09:24:36;9.57;;;4.78;;
57593;SDS011;43423;46.510;6.686;2023-01-05T09:27:01;6.45;;;4.78;;
57593;SDS011;43423;46.510;6.686;2023-01-05T09:29:30;9.75;;;5.07;;
57593;SDS011;43423;46.510;6.686;2023-01-05T09:31:55;10.27;;;4.38;;
57593;SDS011;43423;46.510;6.686;2023-01-05T09:34:21;8.70;;;4.10;;
57593;SDS011;43423;46.510;6.686;2023-01-05T09:36:47;6.80;;;4.15;;
57593;SDS011;43423;46.510;6.686;2023-01-05T09:39:12;6.88;;;4.20;;
57593;SDS011;43423;46.510;6.686;2023-01-05T09:41:42;7.90;;;4.32;;
57593;SDS011;43423;46.510;6.686;2023-01-05T09:44:20;8.63;;;4.82;;
57593;SDS011;43423;46.510;6.686;2023-01-05T09:46:53;12.18;;;6.15;;
57593;SDS011;43423;46.510;6.686;2023-01-05T09:49:22;10.13;;;5.63;;
57593;SDS011;43423;46.510;6.686;2023-01-05T09:52:04;12.52;;;6.03;;
57593;SDS011;43423;46.510;6.686;2023-01-05T09:54:35;11.27;;;5.85;;
57593;SDS011;43423;46.510;6.686;2023-01-05T09:57:03;11.18;;;5.85;;
57593;SDS011;43423;46.510;6.686;2023-01-05T09:59:31;14.93;;;7.65;;
57593;SDS011;43423;46.510;6.686;2023-01-05T10:04:40;13.73;;;6.53;;
57593;SDS011;43423;46.510;6.686;2023-01-05T10:07:06;14.30;;;6.93;;
57593;SDS011;43423;46.510;6.686;2023-01-05T10:09:42;18.70;;;7.22;;
57593;SDS011;43423;46.510;6.686;2023-01-05T10:12:18;9.20;;;5.85;;
57593;SDS011;43423;46.510;6.686;2023-01-05T10:15:18;10.93;;;5.78;;
57593;SDS011;43423;46.510;6.686;2023-01-05T10:17:45;10.50;;;5.63;;
57593;SDS011;43423;46.510;6.686;2023-01-05T10:20:16;9.07;;;5.60;;
57593;SDS011;43423;46.510;6.686;2023-01-05T10:31:22;13.65;;;7.10;;
57593;SDS011;43423;46.510;6.686;2023-01-05T10:34:10;11.63;;;6.95;;
57593;SDS011;43423;46.510;6.686;2023-01-05T10:39:44;12.43;;;7.22;;
57593;SDS011;43423;46.510;6.686;2023-01-05T10:42:29;10.23;;;6.28;;
57593;SDS011;43423;46.510;6.686;2023-01-05T10:45:09;14.02;;;6.90;;
57593;SDS011;43423;46.510;6.686;2023-01-05T10:47:39;12.63;;;6.78;;
57593;SDS011;43423;46.510;6.686;2023-01-05T10:50:17;14.63;;;6.80;;
57593;SDS011;43423;46.510;6.686;2023-01-05T10:52:52;11.63;;;7.03;;
57593;SDS011;43423;46.510;6.686;2023-01-05T10:55:18;10.70;;;6.47;;
57593;SDS011;43423;46.510;6.686;2023-01-05T10:57:46;12.70;;;6.43;;
57593;SDS011;43423;46.510;6.686;2023-01-05T11:02:46;16.27;;;8.32;;
57593;SDS011;43423;46.510;6.686;2023-01-05T11:05:22;8.25;;;5.90;;
57593;SDS011;43423;46.510;6.686;2023-01-05T11:07:52;15.00;;;7.38;;
57593;SDS011;43423;46.510;6.686;2023-01-05T11:10:28;13.20;;;8.07;;
57593;SDS011;43423;46.510;6.686;2023-01-05T11:12:58;13.00;;;6.50;;
57593;SDS011;43423;46.510;6.686;2023-01-05T11:15:27;12.50;;;7.68;;
57593;SDS011;43423;46.510;6.686;2023-01-05T11:17:56;9.70;;;6.50;;
57593;SDS011;43423;46.510;6.686;2023-01-05T11:20:22;10.10;;;5.68;;
57593;SDS011;43423;46.510;6.686;2023-01-05T11:22:48;11.05;;;6.07;;
57593;SDS011;43423;46.510;6.686;2023-01-05T11:25:31;8.45;;;5.63;;
57593;SDS011;43423;46.510;6.686;2023-01-05T11:28:04;11.38;;;5.90;;
57593;SDS011;43423;46.510;6.686;2023-01-05T11:30:33;10.88;;;5.80;;
57593;SDS011;43423;46.510;6.686;2023-01-05T11:32:59;9.23;;;6.15;;
57593;SDS011;43423;46.510;6.686;2023-01-05T11:35:30;9.25;;;6.18;;
57593;SDS011;43423;46.510;6.686;2023-01-05T11:38:00;13.60;;;6.35;;
57593;SDS011;43423;46.510;6.686;2023-01-05T11:40:27;9.70;;;6.45;;
57593;SDS011;43423;46.510;6.686;2023-01-05T11:42:55;9.10;;;6.10;;
57593;SDS011;43423;46.510;6.686;2023-01-05T11:45:23;9.60;;;5.78;;
57593;SDS011;43423;46.510;6.686;2023-01-05T11:50:29;11.75;;;5.78;;
57593;SDS011;43423;46.510;6.686;2023-01-05T11:52:57;12.68;;;6.80;;
57593;SDS011;43423;46.510;6.686;2023-01-05T11:58:40;10.82;;;4.97;;
57593;SDS011;43423;46.510;6.686;2023-01-05T12:03:56;8.82;;;5.47;;
57593;SDS011;43423;46.510;6.686;2023-01-05T12:09:33;6.43;;;4.72;;
57593;SDS011;43423;46.510;6.686;2023-01-05T12:17:53;8.30;;;4.38;;
57593;SDS011;43423;46.510;6.686;2023-01-05T12:22:53;7.28;;;4.63;;
57593;SDS011;43423;46.510;6.686;2023-01-05T12:48:18;5.88;;;3.65;;
57593;SDS011;43423;46.510;6.686;2023-01-05T12:51:05;5.63;;;4.18;;
57593;SDS011;43423;46.510;6.686;2023-01-05T12:53:43;6.95;;;4.53;;
57593;SDS011;43423;46.510;6.686;2023-01-05T12:56:13;7.38;;;4.68;;
57593;SDS011;43423;46.510;6.686;2023-01-05T12:58:50;8.02;;;4.75;;
57593;SDS011;43423;46.510;6.686;2023-01-05T13:01:21;6.07;;;4.25;;
57593;SDS011;43423;46.510;6.686;2023-01-05T13:03:52;7.30;;;4.35;;
57593;SDS011;43423;46.510;6.686;2023-01-05T13:06:22;6.88;;;4.80;;
57593;SDS011;43423;46.510;6.686;2023-01-05T13:08:57;8.25;;;5.10;;
57593;SDS011;43423;46.510;6.686;2023-01-05T13:14:05;9.38;;;5.65;;
57593;SDS011;43423;46.510;6.686;2023-01-05T13:16:38;8.48;;;4.70;;
57593;SDS011;43423;46.510;6.686;2023-01-05T13:19:27;8.02;;;5.07;;
57593;SDS011;43423;46.510;6.686;2023-01-05T13:22:00;10.98;;;5.35;;
57593;SDS011;43423;46.510;6.686;2023-01-05T13:24:32;6.80;;;4.82;;
57593;SDS011;43423;46.510;6.686;2023-01-05T13:27:02;9.55;;;4.63;;
57593;SDS011;43423;46.510;6.686;2023-01-05T13:29:35;10.23;;;5.40;;
57593;SDS011;43423;46.510;6.686;2023-01-05T13:32:10;9.80;;;5.20;;
57593;SDS011;43423;46.510;6.686;2023-01-05T13:39:48;6.25;;;4.75;;
57593;SDS011;43423;46.510;6.686;2023-01-05T13:44:58;7.60;;;4.50;;
57593;SDS011;43423;46.510;6.686;2023-01-05T13:53:23;6.07;;;4.30;;
57593;SDS011;43423;46.510;6.686;2023-01-05T13:55:52;6.38;;;3.90;;
57593;SDS011;43423;46.510;6.686;2023-01-05T14:01:18;9.50;;;3.90;;
57593;SDS011;43423;46.510;6.686;2023-01-05T14:03:57;7.35;;;4.28;;
57593;SDS011;43423;46.510;6.686;2023-01-05T14:06:27;6.43;;;3.90;;
57593;SDS011;43423;46.510;6.686;2023-01-05T14:09:17;5.97;;;3.67;;
57593;SDS011;43423;46.510;6.686;2023-01-05T14:20:35;8.35;;;3.65;;
57593;SDS011;43423;46.510;6.686;2023-01-05T14:25:54;7.68;;;3.85;;
57593;SDS011;43423;46.510;6.686;2023-01-05T14:38:24;7.60;;;4.50;;
57593;SDS011;43423;46.510;6.686;2023-01-05T14:40:50;6.05;;;3.83;;
57593;SDS011;43423;46.510;6.686;2023-01-05T14:43:30;7.78;;;4.13;;
57593;SDS011;43423;46.510;6.686;2023-01-05T14:46:05;8.15;;;4.07;;
57593;SDS011;43423;46.510;6.686;2023-01-05T14:48:39;6.28;;;4.13;;
57593;SDS011;43423;46.510;6.686;2023-01-05T14:51:23;6.93;;;4.07;;
57593;SDS011;43423;46.510;6.686;2023-01-05T14:53:55;7.57;;;4.28;;
57593;SDS011;43423;46.510;6.686;2023-01-05T14:56:26;7.10;;;3.63;;
57593;SDS011;43423;46.510;6.686;2023-01-05T15:04:13;6.88;;;4.30;;
57593;SDS011;43423;46.510;6.686;2023-01-05T15:06:52;5.35;;;4.10;;
57593;SDS011;43423;46.510;6.686;2023-01-05T15:12:25;7.75;;;4.28;;
57593;SDS011;43423;46.510;6.686;2023-01-05T15:15:18;7.93;;;4.70;;
57593;SDS011;43423;46.510;6.686;2023-01-05T15:26:46;7.30;;;3.83;;
57593;SDS011;43423;46.510;6.686;2023-01-05T15:37:33;7.05;;;4.25;;
57593;SDS011;43423;46.510;6.686;2023-01-05T15:40:01;5.57;;;3.60;;
57593;SDS011;43423;46.510;6.686;2023-01-05T15:42:38;6.57;;;4.13;;
57593;SDS011;43423;46.510;6.686;2023-01-05T15:45:06;9.32;;;4.10;;
57593;SDS011;43423;46.510;6.686;2023-01-05T15:47:41;6.88;;;4.50;;
57593;SDS011;43423;46.510;6.686;2023-01-05T15:50:14;5.38;;;3.78;;
57593;SDS011;43423;46.510;6.686;2023-01-05T15:52:43;7.78;;;3.97;;
57593;SDS011;43423;46.510;6.686;2023-01-05T15:55:19;8.23;;;4.25;;
57593;SDS011;43423;46.510;6.686;2023-01-05T15:58:19;8.43;;;4.28;;
57593;SDS011;43423;46.510;6.686;2023-01-05T16:00:40;6.78;;;4.15;;
57593;SDS011;43423;46.510;6.686;2023-01-05T16:03:23;5.50;;;3.72;;
57593;SDS011;43423;46.510;6.686;2023-01-05T16:05:59;5.95;;;3.75;;
57593;SDS011;43423;46.510;6.686;2023-01-05T16:08:27;6.25;;;3.97;;
57593;SDS011;43423;46.510;6.686;2023-01-05T16:10:55;5.88;;;3.90;;
57593;SDS011;43423;46.510;6.686;2023-01-05T16:18:25;6.53;;;4.22;;
57593;SDS011;43423;46.510;6.686;2023-01-05T16:20:55;7.88;;;4.50;;
57593;SDS011;43423;46.510;6.686;2023-01-05T16:23:25;7.50;;;4.15;;
57593;SDS011;43423;46.510;6.686;2023-01-05T16:25:59;6.75;;;3.72;;
57593;SDS011;43423;46.510;6.686;2023-01-05T16:28:25;6.88;;;3.83;;
57593;SDS011;43423;46.510;6.686;2023-01-05T16:30:52;5.47;;;3.70;;
57593;SDS011;43423;46.510;6.686;2023-01-05T16:33:26;6.63;;;4.13;;
57593;SDS011;43423;46.510;6.686;2023-01-05T16:36:07;7.90;;;4.53;;
57593;SDS011;43423;46.510;6.686;2023-01-05T16:38:37;7.32;;;4.40;;
57593;SDS011;43423;46.510;6.686;2023-01-05T16:48:51;6.43;;;4.20;;
57593;SDS011;43423;46.510;6.686;2023-01-05T16:53:51;8.50;;;4.30;;
57593;SDS011;43423;46.510;6.686;2023-01-05T16:56:43;10.13;;;4.80;;
57593;SDS011;43423;46.510;6.686;2023-01-05T17:04:54;10.73;;;5.90;;
57593;SDS011;43423;46.510;6.686;2023-01-05T17:07:20;8.65;;;4.65;;
57593;SDS011;43423;46.510;6.686;2023-01-05T17:13:58;8.70;;;5.13;;
57593;SDS011;43423;46.510;6.686;2023-01-05T17:16:26;7.97;;;4.82;;
57593;SDS011;43423;46.510;6.686;2023-01-05T17:18:52;7.95;;;4.68;;
57593;SDS011;43423;46.510;6.686;2023-01-05T17:31:27;8.30;;;5.22;;
57593;SDS011;43423;46.510;6.686;2023-01-05T17:33:53;8.68;;;4.93;;
57593;SDS011;43423;46.510;6.686;2023-01-05T17:36:20;9.98;;;5.13;;
57593;SDS011;43423;46.510;6.686;2023-01-05T17:38:49;7.00;;;4.03;;
57593;SDS011;43423;46.510;6.686;2023-01-05T17:41:14;7.78;;;4.93;;
57593;SDS011;43423;46.510;6.686;2023-01-05T17:43:40;11.15;;;6.05;;
57593;SDS011;43423;46.510;6.686;2023-01-05T17:46:05;9.40;;;5.07;;
57593;SDS011;43423;46.510;6.686;2023-01-05T17:48:31;10.13;;;5.57;;
57593;SDS011;43423;46.510;6.686;2023-01-05T17:50:57;10.63;;;6.10;;
57593;SDS011;43423;46.510;6.686;2023-01-05T17:53:22;13.15;;;7.57;;